createdAt,value
2023-01-28T00:00:51.374Z,2.00
2023-01-28T00:03:18.250Z,2.00
2023-01-28T00:05:45.080Z,2.00
2023-01-28T00:08:13.513Z,1.90
2023-01-28T00:10:42.868Z,2.00
2023-01-28T00:13:14.707Z,1.90
2023-01-28T00:15:41.793Z,1.90
2023-01-28T00:18:08.887Z,1.90
2023-01-28T00:20:36.200Z,1.90
2023-01-28T00:23:03.099Z,1.90
2023-01-28T00:25:30.581Z,1.90
2023-01-28T00:27:57.342Z,1.90
2023-01-28T00:30:24.153Z,1.90
2023-01-28T00:32:50.916Z,1.80
2023-01-28T00:35:19.693Z,1.90
2023-01-28T00:37:47.363Z,1.90
2023-01-28T00:40:14.362Z,1.90
2023-01-28T00:42:41.197Z,1.90
2023-01-28T00:45:08.616Z,1.90
2023-01-28T00:47:35.726Z,1.90
2023-01-28T00:50:03.312Z,1.90
2023-01-28T00:52:31.372Z,1.90
2023-01-28T00:54:58.377Z,1.80
2023-01-28T00:57:26.250Z,1.90
2023-01-28T00:59:53.059Z,1.90
2023-01-28T01:02:22.142Z,1.90
2023-01-28T01:05:01.129Z,1.90
2023-01-28T01:07:41.864Z,1.90
2023-01-28T01:10:15.257Z,1.90
2023-01-28T01:12:42.116Z,1.90
2023-01-28T01:15:10.407Z,1.90
2023-01-28T01:17:39.145Z,1.90
2023-01-28T01:20:09.865Z,1.90
2023-01-28T01:22:37.014Z,1.80
2023-01-28T01:25:06.218Z,1.80
2023-01-28T01:27:33.180Z,1.80
2023-01-28T01:30:00.006Z,1.80
2023-01-28T01:32:31.875Z,1.80
2023-01-28T01:34:59.277Z,1.80
2023-01-28T01:37:26.272Z,1.80
2023-01-28T01:39:53.156Z,1.80
2023-01-28T01:42:20.455Z,1.80
2023-01-28T01:44:57.841Z,1.80
2023-01-28T01:47:43.435Z,1.80
2023-01-28T01:50:16.681Z,1.90
2023-01-28T01:52:45.115Z,1.90
2023-01-28T01:55:17.056Z,1.80
2023-01-28T01:57:46.118Z,1.80
2023-01-28T02:00:14.444Z,1.80
2023-01-28T02:02:48.224Z,1.80
2023-01-28T02:05:19.039Z,1.80
2023-01-28T02:07:48.184Z,1.80
2023-01-28T02:10:15.766Z,1.70
2023-01-28T02:12:57.968Z,1.70
2023-01-28T02:15:27.271Z,1.70
2023-01-28T02:17:54.967Z,1.70
2023-01-28T02:20:44.398Z,1.70
2023-01-28T02:23:42.360Z,1.70
2023-01-28T02:26:21.932Z,1.70
2023-01-28T02:29:21.020Z,1.70
2023-01-28T02:31:58.908Z,1.70
2023-01-28T02:34:35.805Z,1.70
2023-01-28T02:37:14.997Z,1.70
2023-01-28T02:39:55.118Z,1.70
2023-01-28T02:42:30.502Z,1.70
2023-01-28T02:44:58.160Z,1.70
2023-01-28T02:47:44.904Z,1.70
2023-01-28T02:50:17.331Z,1.70
2023-01-28T02:53:15.350Z,1.60
2023-01-28T02:56:09.726Z,1.60
2023-01-28T02:58:46.441Z,1.60
2023-01-28T03:01:28.169Z,1.60
2023-01-28T03:03:54.925Z,1.50
2023-01-28T03:06:26.604Z,1.50
2023-01-28T03:09:22.809Z,1.50
2023-01-28T03:12:20.707Z,1.50
2023-01-28T03:15:10.644Z,1.50
2023-01-28T03:18:08.704Z,1.50
2023-01-28T03:21:01.161Z,1.50
2023-01-28T03:23:52.603Z,1.50
2023-01-28T03:26:40.758Z,1.50
2023-01-28T03:29:30.830Z,1.50
2023-01-28T03:32:17.804Z,1.50
2023-01-28T03:35:04.805Z,1.50
2023-01-28T03:37:33.499Z,1.50
2023-01-28T03:40:10.360Z,1.50
2023-01-28T03:42:37.197Z,1.50
2023-01-28T03:45:23.956Z,1.50
2023-01-28T03:47:50.904Z,1.50
2023-01-28T03:50:17.808Z,1.50
2023-01-28T03:52:54.756Z,1.50
2023-01-28T03:55:29.442Z,1.50
2023-01-28T03:57:56.229Z,1.60
2023-01-28T04:00:23.537Z,1.50
2023-01-28T04:02:50.527Z,1.50
2023-01-28T04:05:20.598Z,1.50
2023-01-28T04:07:51.521Z,1.50
2023-01-28T04:10:32.959Z,1.50
2023-01-28T04:13:14.264Z,1.50
2023-01-28T04:15:43.286Z,1.50
2023-01-28T04:18:10.737Z,1.50
2023-01-28T04:20:37.930Z,1.50
2023-01-28T04:23:05.355Z,1.50
2023-01-28T04:25:32.424Z,1.50
2023-01-28T04:28:00.137Z,1.50
2023-01-28T04:30:29.537Z,1.50
2023-01-28T04:33:11.359Z,1.40
2023-01-28T04:35:55.762Z,1.40
2023-01-28T04:38:34.714Z,1.40
2023-01-28T04:41:33.823Z,1.40
2023-01-28T04:44:06.709Z,1.30
2023-01-28T04:46:56.075Z,1.30
2023-01-28T04:49:44.331Z,1.30
2023-01-28T04:52:13.671Z,1.30
2023-01-28T04:55:09.059Z,1.30
2023-01-28T04:57:36.169Z,1.30
2023-01-28T05:00:05.682Z,1.30
2023-01-28T05:02:32.417Z,1.30
2023-01-28T05:05:01.399Z,1.20
2023-01-28T05:07:50.942Z,1.20
2023-01-28T05:10:19.270Z,1.20
2023-01-28T05:12:47.211Z,1.20
2023-01-28T05:15:16.138Z,1.20
2023-01-28T05:17:44.000Z,1.30
2023-01-28T05:20:13.982Z,1.20
2023-01-28T05:22:42.214Z,1.20
2023-01-28T05:25:18.330Z,1.20
2023-01-28T05:27:50.953Z,1.20
2023-01-28T05:30:19.137Z,1.20
2023-01-28T05:32:46.580Z,1.20
2023-01-28T05:35:16.267Z,1.20
2023-01-28T05:37:44.290Z,1.20
2023-01-28T05:40:12.190Z,1.20
2023-01-28T05:42:39.346Z,1.20
2023-01-28T05:45:35.517Z,1.20
2023-01-28T05:48:22.751Z,1.20
2023-01-28T05:51:14.016Z,1.10
2023-01-28T05:53:45.181Z,1.10
2023-01-28T05:56:12.067Z,1.10
2023-01-28T05:58:40.714Z,1.10
2023-01-28T06:01:07.917Z,1.00
2023-01-28T06:03:40.232Z,1.00
2023-01-28T06:06:07.192Z,1.00
2023-01-28T06:08:37.165Z,1.00
2023-01-28T06:11:04.102Z,1.00
2023-01-28T06:13:33.512Z,1.00
2023-01-28T06:16:20.600Z,1.00
2023-01-28T06:18:59.678Z,1.00
2023-01-28T06:21:28.996Z,1.00
2023-01-28T06:23:57.902Z,0.90
2023-01-28T06:26:24.721Z,0.90
2023-01-28T06:28:51.703Z,0.90
2023-01-28T06:31:19.102Z,0.90
2023-01-28T06:33:46.083Z,0.80
2023-01-28T06:36:12.851Z,0.80
2023-01-28T06:38:39.666Z,0.80
2023-01-28T06:41:06.546Z,0.80
2023-01-28T06:43:33.665Z,0.80
2023-01-28T06:46:01.016Z,0.80
2023-01-28T06:48:28.487Z,0.80
2023-01-28T06:50:55.438Z,0.80
2023-01-28T06:53:22.405Z,0.80
2023-01-28T06:55:49.732Z,0.70
2023-01-28T06:58:16.711Z,0.70
2023-01-28T07:00:43.505Z,0.70
2023-01-28T07:03:10.341Z,0.70
2023-01-28T07:05:37.164Z,0.70
2023-01-28T07:08:03.980Z,0.70
2023-01-28T07:10:30.892Z,0.70
2023-01-28T07:12:57.735Z,0.70
2023-01-28T07:15:24.545Z,0.60
2023-01-28T07:17:51.334Z,0.60
2023-01-28T07:20:18.680Z,0.60
2023-01-28T07:22:46.008Z,0.60
2023-01-28T07:25:14.756Z,0.60
2023-01-28T07:27:52.727Z,0.60
2023-01-28T07:30:21.007Z,0.60
2023-01-28T07:32:52.514Z,0.60
2023-01-28T07:35:19.303Z,0.60
2023-01-28T07:38:06.356Z,0.60
2023-01-28T07:40:33.153Z,0.60
2023-01-28T07:43:00.832Z,0.60
2023-01-28T07:45:30.431Z,0.60
2023-01-28T07:47:58.931Z,0.60
2023-01-28T07:50:26.711Z,0.60
2023-01-28T07:52:53.865Z,0.60
2023-01-28T07:55:21.064Z,0.60
2023-01-28T07:57:59.525Z,0.60
2023-01-28T08:00:29.294Z,0.60
2023-01-28T08:02:58.513Z,0.60
2023-01-28T08:05:28.383Z,0.60
2023-01-28T08:07:55.498Z,0.60
2023-01-28T08:10:22.281Z,0.70
2023-01-28T08:12:56.337Z,0.70
2023-01-28T08:15:23.402Z,0.70
2023-01-28T08:17:50.511Z,0.70
2023-01-28T08:20:17.813Z,0.80
2023-01-28T08:22:44.742Z,0.80
2023-01-28T08:25:11.552Z,0.90
2023-01-28T08:27:38.372Z,0.80
2023-01-28T08:30:06.184Z,0.90
2023-01-28T08:32:33.405Z,0.90
2023-01-28T08:35:00.240Z,0.90
2023-01-28T08:37:27.145Z,0.90
2023-01-28T08:39:53.966Z,0.90
2023-01-28T08:42:20.856Z,1.00
2023-01-28T08:44:48.163Z,1.00
2023-01-28T08:47:15.455Z,1.00
2023-01-28T08:49:42.222Z,1.00
2023-01-28T08:52:09.204Z,1.10
2023-01-28T08:54:36.472Z,1.10
2023-01-28T08:57:03.731Z,1.00
2023-01-28T08:59:30.504Z,1.10
2023-01-28T09:01:57.407Z,1.10
2023-01-28T09:04:24.276Z,1.10
2023-01-28T09:06:51.158Z,1.10
2023-01-28T09:09:18.058Z,1.10
2023-01-28T09:11:44.924Z,1.10
2023-01-28T09:14:11.713Z,1.20
2023-01-28T09:16:38.551Z,1.20
2023-01-28T09:19:05.329Z,1.20
2023-01-28T09:21:32.147Z,1.10
2023-01-28T09:23:58.969Z,1.10
2023-01-28T09:26:25.858Z,1.10
2023-01-28T09:28:52.676Z,1.10
2023-01-28T09:31:19.506Z,1.10
2023-01-28T09:33:48.382Z,1.20
2023-01-28T09:36:15.201Z,1.20
2023-01-28T09:38:41.985Z,1.30
2023-01-28T09:41:28.654Z,1.30
2023-01-28T09:44:13.435Z,1.30
2023-01-28T09:46:42.739Z,1.30
2023-01-28T09:49:38.853Z,1.30
2023-01-28T09:52:05.766Z,1.30
2023-01-28T09:54:46.699Z,1.40
2023-01-28T09:57:23.354Z,1.40
2023-01-28T09:59:50.920Z,1.50
2023-01-28T10:02:23.852Z,1.50
2023-01-28T10:04:59.885Z,1.60
2023-01-28T10:07:34.603Z,1.60
2023-01-28T10:10:30.471Z,1.60
2023-01-28T10:13:08.966Z,1.70
2023-01-28T10:15:54.559Z,1.70
2023-01-28T10:18:41.829Z,1.70
2023-01-28T10:21:12.597Z,1.70
2023-01-28T10:23:50.433Z,1.70
2023-01-28T10:26:24.253Z,1.70
2023-01-28T10:28:56.774Z,1.70
2023-01-28T10:31:30.273Z,1.80
2023-01-28T10:33:57.048Z,1.80
2023-01-28T10:36:23.970Z,1.80
2023-01-28T10:38:51.710Z,1.80
2023-01-28T10:41:21.845Z,1.70
2023-01-28T10:43:50.287Z,1.70
2023-01-28T10:46:26.650Z,1.70
2023-01-28T10:49:14.588Z,1.80
2023-01-28T10:51:43.003Z,1.90
2023-01-28T10:54:24.826Z,2.00
2023-01-28T10:57:01.873Z,2.00
2023-01-28T10:59:31.534Z,1.90
2023-01-28T11:02:05.284Z,1.90
2023-01-28T11:04:36.277Z,2.00
2023-01-28T11:07:17.167Z,2.10
2023-01-28T11:09:49.836Z,2.10
2023-01-28T11:12:25.950Z,2.10
2023-01-28T11:14:56.504Z,2.20
2023-01-28T11:17:26.027Z,2.10
2023-01-28T11:19:55.004Z,2.10
2023-01-28T11:22:28.997Z,2.00
2023-01-28T11:24:56.028Z,2.10
2023-01-28T11:27:29.999Z,2.10
2023-01-28T11:30:03.085Z,2.10
2023-01-28T11:32:33.816Z,2.10
2023-01-28T11:35:00.690Z,2.10
2023-01-28T11:37:29.213Z,2.20
2023-01-28T11:40:04.911Z,2.20
2023-01-28T11:42:31.943Z,2.20
2023-01-28T11:44:58.780Z,2.20
2023-01-28T11:47:42.497Z,2.10
2023-01-28T11:50:15.756Z,2.10
2023-01-28T11:53:05.927Z,2.10
2023-01-28T11:56:04.707Z,2.20
2023-01-28T11:58:53.175Z,2.00
2023-01-28T12:01:50.874Z,2.00
2023-01-28T12:04:21.226Z,2.10
2023-01-28T12:07:15.498Z,2.20
2023-01-28T12:09:53.346Z,2.20
2023-01-28T12:12:41.977Z,2.20
2023-01-28T12:15:47.276Z,2.20
2023-01-28T12:18:42.890Z,2.20
2023-01-28T12:21:21.007Z,2.20
2023-01-28T12:24:10.515Z,2.20
2023-01-28T12:27:18.104Z,2.10
2023-01-28T12:29:51.784Z,2.00
2023-01-28T12:32:39.060Z,2.00
2023-01-28T12:35:32.414Z,2.10
2023-01-28T12:38:18.396Z,2.10
2023-01-28T12:40:57.598Z,2.20
2023-01-28T12:43:48.949Z,2.30
2023-01-28T12:46:25.105Z,2.30
2023-01-28T12:49:25.637Z,2.40
2023-01-28T12:52:11.290Z,2.50
2023-01-28T12:54:59.430Z,2.60
2023-01-28T12:57:31.623Z,2.60
2023-01-28T13:00:23.322Z,2.70
2023-01-28T13:03:14.364Z,2.70
2023-01-28T13:06:04.025Z,2.80
2023-01-28T13:08:31.025Z,2.80
2023-01-28T13:11:00.135Z,2.80
2023-01-28T13:13:36.702Z,2.80
2023-01-28T13:16:05.791Z,2.80
2023-01-28T13:18:45.133Z,2.70
2023-01-28T13:21:25.736Z,2.70
2023-01-28T13:24:07.151Z,2.60
2023-01-28T13:26:44.901Z,2.50
2023-01-28T13:29:14.840Z,2.50
2023-01-28T13:31:44.693Z,2.50
2023-01-28T13:34:33.627Z,2.40
2023-01-28T13:37:17.513Z,2.40
2023-01-28T13:40:13.442Z,2.50
2023-01-28T13:42:41.183Z,2.40
2023-01-28T13:53:24.797Z,2.30
2023-01-28T13:55:55.238Z,2.30
2023-01-28T14:07:01.191Z,2.30
2023-01-28T14:09:46.050Z,2.40
2023-01-28T14:12:24.063Z,2.30
2023-01-28T14:15:00.732Z,2.20
2023-01-28T14:17:43.915Z,2.10
2023-01-28T14:20:21.518Z,2.00
2023-01-28T14:22:50.100Z,2.00
2023-01-28T14:25:28.973Z,2.00
2023-01-28T14:27:56.859Z,2.10
2023-01-28T14:30:43.381Z,2.00
2023-01-28T14:33:12.522Z,2.00
2023-01-28T14:35:48.356Z,2.00
2023-01-28T14:38:21.419Z,1.90
2023-01-28T14:40:55.355Z,1.90
2023-01-28T14:43:24.952Z,1.90
2023-01-28T14:46:16.974Z,1.90
2023-01-28T14:49:02.663Z,1.90
2023-01-28T14:51:53.635Z,1.90
2023-01-28T14:54:43.484Z,2.00
2023-01-28T14:57:24.122Z,1.90
2023-01-28T14:59:57.957Z,1.90
2023-01-28T15:02:28.083Z,1.90
2023-01-28T15:04:55.875Z,1.90
2023-01-28T15:07:27.532Z,1.90
2023-01-28T15:10:14.322Z,1.90
2023-01-28T15:12:44.662Z,1.80
2023-01-28T15:15:47.353Z,1.80
2023-01-28T15:18:19.331Z,1.70
2023-01-28T15:20:48.379Z,1.70
2023-01-28T15:23:17.972Z,1.60
2023-01-28T15:25:45.375Z,1.60
2023-01-28T15:28:29.608Z,1.50
2023-01-28T15:30:57.239Z,1.50
2023-01-28T15:33:24.359Z,1.40
2023-01-28T15:35:53.527Z,1.40
2023-01-28T15:38:21.580Z,1.30
2023-01-28T15:40:57.727Z,1.20
2023-01-28T15:43:30.967Z,1.20
2023-01-28T15:45:59.301Z,1.10
2023-01-28T15:48:30.735Z,1.10
2023-01-28T15:51:02.899Z,1.00
2023-01-28T15:53:36.599Z,0.90
2023-01-28T15:56:09.584Z,0.90
2023-01-28T15:58:41.219Z,0.80
2023-01-28T16:01:15.129Z,0.70
2023-01-28T16:03:44.325Z,0.60
2023-01-28T16:06:33.617Z,0.60
2023-01-28T16:09:14.106Z,0.50
2023-01-28T16:11:47.166Z,0.40
2023-01-28T16:14:29.584Z,0.40
2023-01-28T16:16:57.618Z,0.30
2023-01-28T16:19:38.184Z,0.20
2023-01-28T16:22:06.127Z,0.10
2023-01-28T16:24:37.584Z,0.10
2023-01-28T16:27:26.606Z,0.00
2023-01-28T16:29:53.469Z,-0.10
2023-01-28T16:32:36.792Z,-0.10
2023-01-28T16:35:12.022Z,-0.30
2023-01-28T16:37:40.659Z,-0.30
2023-01-28T16:40:11.359Z,-0.40
2023-01-28T16:42:38.477Z,-0.40
2023-01-28T16:45:06.404Z,-0.40
2023-01-28T16:47:33.214Z,-0.50
2023-01-28T16:50:00.143Z,-0.50
2023-01-28T16:52:27.380Z,-0.60
2023-01-28T16:54:54.113Z,-0.70
2023-01-28T16:57:22.515Z,-0.70
2023-01-28T16:59:49.373Z,-0.70
2023-01-28T17:02:17.766Z,-0.70
2023-01-28T17:04:44.648Z,-0.80
2023-01-28T17:07:11.500Z,-0.80
2023-01-28T17:09:38.308Z,-0.80
2023-01-28T17:12:05.630Z,-0.90
2023-01-28T17:14:32.400Z,-1.00
2023-01-28T17:16:59.240Z,-1.00
2023-01-28T17:19:26.077Z,-1.00
2023-01-28T17:21:53.002Z,-1.10
2023-01-28T17:24:19.884Z,-1.10
2023-01-28T17:26:46.783Z,-1.10
2023-01-28T17:29:13.544Z,-1.10
2023-01-28T17:31:40.435Z,-1.20
2023-01-28T17:34:08.052Z,-1.20
2023-01-28T17:36:35.131Z,-1.20
2023-01-28T17:39:02.004Z,-1.30
2023-01-28T17:41:29.100Z,-1.30
2023-01-28T17:43:56.487Z,-1.30
2023-01-28T17:46:24.908Z,-1.40
2023-01-28T17:48:52.223Z,-1.40
2023-01-28T17:51:19.448Z,-1.40
2023-01-28T17:53:53.316Z,-1.50
2023-01-28T17:56:25.883Z,-1.50
2023-01-28T17:59:06.409Z,-1.50
2023-01-28T18:01:34.708Z,-1.50
2023-01-28T18:04:01.803Z,-1.50
2023-01-28T18:06:32.978Z,-1.60
2023-01-28T18:08:59.844Z,-1.60
2023-01-28T18:11:27.967Z,-1.60
2023-01-28T18:13:54.768Z,-1.70
2023-01-28T18:16:21.777Z,-1.70
2023-01-28T18:18:49.684Z,-1.70
2023-01-28T18:21:51.164Z,-1.70
2023-01-28T18:24:19.229Z,-1.80
2023-01-28T18:26:46.073Z,-1.90
2023-01-28T18:29:16.611Z,-1.90
2023-01-28T18:31:43.752Z,-1.90
2023-01-28T18:34:10.698Z,-2.00
2023-01-28T18:36:37.562Z,-2.00
2023-01-28T18:39:04.417Z,-2.00
2023-01-28T18:41:31.229Z,-2.00
2023-01-28T18:43:58.149Z,-2.00
2023-01-28T18:46:24.910Z,-2.00
2023-01-28T18:48:51.751Z,-2.10
2023-01-28T18:51:29.473Z,-2.10
2023-01-28T18:54:02.232Z,-2.10
2023-01-28T18:56:29.852Z,-2.20
2023-01-28T18:59:01.744Z,-2.20
2023-01-28T19:01:30.245Z,-2.20
2023-01-28T19:03:58.473Z,-2.30
2023-01-28T19:06:27.414Z,-2.30
2023-01-28T19:08:59.301Z,-2.30
2023-01-28T19:11:28.235Z,-2.30
2023-01-28T19:13:55.212Z,-2.30
2023-01-28T19:16:22.763Z,-2.30
2023-01-28T19:18:58.872Z,-2.30
2023-01-28T19:21:27.658Z,-2.40
2023-01-28T19:23:56.313Z,-2.40
2023-01-28T19:26:23.932Z,-2.40
2023-01-28T19:28:51.507Z,-2.40
2023-01-28T19:31:19.529Z,-2.40
2023-01-28T19:33:47.864Z,-2.40
2023-01-28T19:36:15.111Z,-2.50
2023-01-28T19:38:42.909Z,-2.50
2023-01-28T19:41:09.739Z,-2.50
2023-01-28T19:43:36.645Z,-2.50
2023-01-28T19:46:05.842Z,-2.50
2023-01-28T19:48:33.412Z,-2.60
2023-01-28T19:51:09.819Z,-2.60
2023-01-28T19:53:38.240Z,-2.60
2023-01-28T19:56:08.780Z,-2.60
2023-01-28T19:58:37.339Z,-2.70
2023-01-28T20:01:09.798Z,-2.70
2023-01-28T20:03:37.114Z,-2.80
2023-01-28T20:06:06.080Z,-2.70
2023-01-28T20:08:33.302Z,-2.70
2023-01-28T20:11:09.125Z,-2.70
2023-01-28T20:13:36.957Z,-2.70
2023-01-28T20:16:16.545Z,-2.80
2023-01-28T20:18:43.832Z,-2.80
2023-01-28T20:21:10.641Z,-2.80
2023-01-28T20:23:37.454Z,-2.90
2023-01-28T20:26:04.453Z,-2.80
2023-01-28T20:28:31.354Z,-2.90
2023-01-28T20:31:05.386Z,-2.90
2023-01-28T20:33:32.356Z,-2.90
2023-01-28T20:36:08.124Z,-2.90
2023-01-28T20:38:39.470Z,-2.80
2023-01-28T20:41:07.980Z,-2.90
2023-01-28T20:43:36.103Z,-2.90
2023-01-28T20:46:05.090Z,-2.90
2023-01-28T20:48:32.342Z,-2.90
2023-01-28T20:51:05.996Z,-2.90
2023-01-28T20:53:32.948Z,-2.90
2023-01-28T20:56:00.451Z,-2.90
2023-01-28T20:58:27.208Z,-3.00
2023-01-28T21:00:54.011Z,-3.00
2023-01-28T21:03:21.338Z,-3.10
2023-01-28T21:05:48.774Z,-3.10
2023-01-28T21:08:15.959Z,-3.10
2023-01-28T21:10:42.873Z,-3.10
2023-01-28T21:13:12.736Z,-3.10
2023-01-28T21:15:40.080Z,-3.10
2023-01-28T21:18:07.007Z,-3.10
2023-01-28T21:20:34.035Z,-3.10
2023-01-28T21:23:00.851Z,-3.10
2023-01-28T21:25:27.732Z,-3.10
2023-01-28T21:27:54.544Z,-3.10
2023-01-28T21:30:21.504Z,-3.20
2023-01-28T21:32:48.322Z,-3.20
2023-01-28T21:35:15.205Z,-3.20
2023-01-28T21:37:46.283Z,-3.20
2023-01-28T21:40:13.372Z,-3.20
2023-01-28T21:42:40.313Z,-3.20
2023-01-28T21:45:07.728Z,-3.20
2023-01-28T21:47:34.535Z,-3.30
2023-01-28T21:50:01.476Z,-3.20
2023-01-28T21:52:28.339Z,-3.30
2023-01-28T21:54:55.125Z,-3.30
2023-01-28T21:57:22.044Z,-3.20
2023-01-28T21:59:48.951Z,-3.20
2023-01-28T22:02:15.957Z,-3.30
2023-01-28T22:04:46.226Z,-3.20
2023-01-28T22:07:17.048Z,-3.30
2023-01-28T22:09:44.715Z,-3.20
2023-01-28T22:12:14.724Z,-3.20
2023-01-28T22:14:42.943Z,-3.30
2023-01-28T22:17:11.842Z,-3.30
2023-01-28T22:19:39.319Z,-3.30
2023-01-28T22:22:07.050Z,-3.40
2023-01-28T22:24:34.156Z,-3.40
2023-01-28T22:27:01.180Z,-3.40
2023-01-28T22:29:28.111Z,-3.50
2023-01-28T22:31:55.386Z,-3.50
2023-01-28T22:34:22.598Z,-3.50
2023-01-28T22:36:50.012Z,-3.60
2023-01-28T22:39:17.599Z,-3.60
2023-01-28T22:41:44.956Z,-3.60
2023-01-28T22:44:11.862Z,-3.50
2023-01-28T22:46:38.681Z,-3.50
2023-01-28T22:49:05.701Z,-3.50
2023-01-28T22:51:34.809Z,-3.50
2023-01-28T22:54:02.666Z,-3.50
2023-01-28T22:56:30.998Z,-3.60
2023-01-28T22:59:00.962Z,-3.60
2023-01-28T23:01:28.510Z,-3.60
2023-01-28T23:03:56.173Z,-3.60
2023-01-28T23:06:25.057Z,-3.60
2023-01-28T23:08:51.884Z,-3.60
2023-01-28T23:11:25.357Z,-3.60
2023-01-28T23:14:12.692Z,-3.60
2023-01-28T23:16:58.242Z,-3.60
2023-01-28T23:19:44.134Z,-3.60
2023-01-28T23:22:40.186Z,-3.60
2023-01-28T23:25:07.574Z,-3.70
2023-01-28T23:27:34.417Z,-3.70
2023-01-28T23:30:01.393Z,-3.70
2023-01-28T23:32:28.379Z,-3.70
2023-01-28T23:34:55.295Z,-3.70
2023-01-28T23:37:22.131Z,-3.70
2023-01-28T23:39:48.944Z,-3.80
2023-01-28T23:42:18.257Z,-3.80
2023-01-28T23:44:45.499Z,-3.70
2023-01-28T23:47:12.623Z,-3.70
2023-01-28T23:49:40.027Z,-3.70
2023-01-28T23:52:07.691Z,-3.80
2023-01-28T23:54:34.573Z,-3.70
2023-01-28T23:57:01.899Z,-3.80
2023-01-28T23:59:28.712Z,-3.70
